Terminal Aerodrome Forecast
Issued by NWS

Home | Current Version | Previous Version | Text Only | Print | Product List | Glossary On
Versions: 1 2 3 4 5 6 7 8 9 10 11 12 13 14 15 16 17
000
FTUS43 KLSX 301100
TAFCPS
TAF
KCPS 301120Z 3012/0112 00000KT 6SM BR SKC
     FM301500 03006KT P6SM SCT005
      TEMPO 3015/3017 5SM BR BKN005
     FM301800 05005KT P6SM SCT025
     FM010000 10007KT P6SM SCT250=

USA.gov is the U.S. government's official web portal to all federal, state and local government web resources and services.